Airfield :
LOGIN :

Register | Disclaimer

   EN    FR    IT 

 










Legend :    VFR   Marginal VFR   IFR   Intensive IFR   Very Intensive IFR
Visi :
Ceiling :
>= 8 km
>= 3000ft
5 to 8 km
1000 to 3000 ft
1500m to 5 km
500 to 1000 ft
800 to 1500m
200 to 500 ft
< 800m
< 200 ft
Symbols :   Thunderstorms  Fog  Heavy snow  Heavy precipitations  Wind > 20 kt
SIGMETs :     Misc.  Thunderstorms  Icing  Turbulence  Mountain Waves  Volcanic Ashes







- Airport Elevation : 288 ft
- IATA code : BZZ


EGVN - RAF Brize Norton

CURRENT METAR :
  • 201450Z 12004KT CAVOK 22/04 Q1020 NOSIG

EXPIRED METARs :
  • 201350Z 18005KT CAVOK 21/06 Q1020 NOSIG
  • 201250Z 15004KT CAVOK 21/07 Q1021 ROBERT SANDISON

TAF TAF EGVN
Valid from the 20 at 15:00 until the 21 at 15:00 UTC


201318Z 2015/2115 15006KT 9999 FEW040
BECMG 2101/2103 5000 HZ
PROB40 2103/2106 4000 BR
PROB30
TEMPO 2112/2115 4000 SHRA
No reported NOTAMs for that airfield.



MET'MAP, your aeronautical weather chart ! - Copyright ORBIFLY December 2007 - Disclaimer

ORBIFLY MET'MAP TEAM :

Programming & Development : Alexandra Zaïnal
Concept & Development : Baudouin d'Aumeries
Co-Development & Prog : Marc-Olivier Méhu
Technical & hardware support : Manuel Goepfert

Contact : metmap@orbifly.com




SOURCES & CREDITS :

   NOAA